sensor_id;sensor_type;location;lat;lon;timestamp;pressure;altitude;pressure_sealevel;temperature;humidity
49072;BME280;52656;52.610;10.236;2023-03-26T00:00:58;99879.88;;;7.54;86.34
49072;BME280;52656;52.610;10.236;2023-03-26T00:03:23;99875.66;;;7.50;88.07
49072;BME280;52656;52.610;10.236;2023-03-26T00:05:48;99875.28;;;7.59;86.28
49072;BME280;52656;52.610;10.236;2023-03-26T00:08:15;99880.34;;;7.64;85.40
49072;BME280;52656;52.610;10.236;2023-03-26T00:10:41;99885.47;;;7.67;86.51
49072;BME280;52656;52.610;10.236;2023-03-26T00:13:07;99894.94;;;7.73;85.86
49072;BME280;52656;52.610;10.236;2023-03-26T00:15:34;99887.81;;;7.75;86.11
49072;BME280;52656;52.610;10.236;2023-03-26T00:18:00;99897.38;;;7.77;86.28
49072;BME280;52656;52.610;10.236;2023-03-26T00:20:26;99893.75;;;7.80;85.54
49072;BME280;52656;52.610;10.236;2023-03-26T00:22:53;99895.84;;;7.72;87.14
49072;BME280;52656;52.610;10.236;2023-03-26T00:25:19;99897.38;;;7.77;86.31
49072;BME280;52656;52.610;10.236;2023-03-26T00:27:45;99899.94;;;7.79;86.48
49072;BME280;52656;52.610;10.236;2023-03-26T00:30:11;99903.69;;;7.73;88.12
49072;BME280;52656;52.610;10.236;2023-03-26T00:32:37;99906.09;;;7.57;88.47
49072;BME280;52656;52.610;10.236;2023-03-26T00:35:02;99905.59;;;7.70;87.39
49072;BME280;52656;52.610;10.236;2023-03-26T00:37:29;99906.53;;;7.69;87.11
49072;BME280;52656;52.610;10.236;2023-03-26T00:39:56;99906.44;;;7.70;87.20
49072;BME280;52656;52.610;10.236;2023-03-26T00:42:27;99896.94;;;7.66;86.67
49072;BME280;52656;52.610;10.236;2023-03-26T00:44:52;99907.44;;;7.68;86.20
49072;BME280;52656;52.610;10.236;2023-03-26T00:47:23;99901.63;;;7.59;87.24
49072;BME280;52656;52.610;10.236;2023-03-26T00:49:48;99904.47;;;7.55;86.56
49072;BME280;52656;52.610;10.236;2023-03-26T00:52:15;99904.69;;;7.49;87.05
49072;BME280;52656;52.610;10.236;2023-03-26T00:54:44;99905.72;;;7.45;87.18
49072;BME280;52656;52.610;10.236;2023-03-26T00:57:10;99901.25;;;7.47;87.15
49072;BME280;52656;52.610;10.236;2023-03-26T00:59:37;99910.09;;;7.46;87.00
49072;BME280;52656;52.610;10.236;2023-03-26T01:02:02;99914.72;;;7.39;87.69
49072;BME280;52656;52.610;10.236;2023-03-26T01:04:29;99909.72;;;7.33;87.75
49072;BME280;52656;52.610;10.236;2023-03-26T01:07:04;99909.78;;;7.31;87.95
49072;BME280;52656;52.610;10.236;2023-03-26T01:09:36;99911.34;;;7.35;86.58
49072;BME280;52656;52.610;10.236;2023-03-26T01:12:09;99919.44;;;7.31;86.53
49072;BME280;52656;52.610;10.236;2023-03-26T01:14:36;99927.34;;;7.31;86.97
49072;BME280;52656;52.610;10.236;2023-03-26T01:17:04;99924.00;;;7.27;86.84
49072;BME280;52656;52.610;10.236;2023-03-26T01:19:33;99915.47;;;7.21;87.12
49072;BME280;52656;52.610;10.236;2023-03-26T01:22:03;99929.56;;;7.20;86.73
49072;BME280;52656;52.610;10.236;2023-03-26T01:24:30;99934.81;;;7.20;86.90
49072;BME280;52656;52.610;10.236;2023-03-26T01:35:32;99937.72;;;7.13;85.80
49072;BME280;52656;52.610;10.236;2023-03-26T01:38:30;99944.50;;;7.19;85.22
49072;BME280;52656;52.610;10.236;2023-03-26T01:46:24;99934.94;;;7.17;84.93
49072;BME280;52656;52.610;10.236;2023-03-26T01:48:51;99936.34;;;7.25;84.20
49072;BME280;52656;52.610;10.236;2023-03-26T01:51:28;99929.44;;;7.23;84.33
49072;BME280;52656;52.610;10.236;2023-03-26T01:53:55;99936.44;;;7.24;83.27
49072;BME280;52656;52.610;10.236;2023-03-26T01:56:30;99930.00;;;7.09;83.13
49072;BME280;52656;52.610;10.236;2023-03-26T02:01:45;99925.53;;;6.87;83.60
49072;BME280;52656;52.610;10.236;2023-03-26T02:09:36;99945.50;;;6.93;83.64
49072;BME280;52656;52.610;10.236;2023-03-26T02:12:07;99935.47;;;6.79;83.88
49072;BME280;52656;52.610;10.236;2023-03-26T02:14:34;99948.56;;;6.81;83.91
49072;BME280;52656;52.610;10.236;2023-03-26T02:16:59;99954.06;;;6.98;82.67
49072;BME280;52656;52.610;10.236;2023-03-26T02:19:25;99952.19;;;7.02;82.81
49072;BME280;52656;52.610;10.236;2023-03-26T02:21:50;99944.03;;;7.08;82.15
49072;BME280;52656;52.610;10.236;2023-03-26T02:24:19;99941.56;;;7.05;82.16
49072;BME280;52656;52.610;10.236;2023-03-26T02:26:44;99943.44;;;7.01;82.34
49072;BME280;52656;52.610;10.236;2023-03-26T02:29:11;99940.72;;;7.03;82.38
49072;BME280;52656;52.610;10.236;2023-03-26T02:31:37;99940.22;;;6.93;81.87
49072;BME280;52656;52.610;10.236;2023-03-26T02:34:02;99934.78;;;6.98;82.14
49072;BME280;52656;52.610;10.236;2023-03-26T02:36:28;99925.28;;;6.94;81.81
49072;BME280;52656;52.610;10.236;2023-03-26T02:38:54;99926.31;;;6.89;81.97
49072;BME280;52656;52.610;10.236;2023-03-26T02:41:22;99925.47;;;6.89;82.07
49072;BME280;52656;52.610;10.236;2023-03-26T02:43:47;99930.69;;;6.91;82.45
49072;BME280;52656;52.610;10.236;2023-03-26T02:46:12;99935.72;;;6.97;81.89
49072;BME280;52656;52.610;10.236;2023-03-26T02:48:37;99937.00;;;6.85;82.43
49072;BME280;52656;52.610;10.236;2023-03-26T02:51:05;99932.78;;;6.81;82.58
49072;BME280;52656;52.610;10.236;2023-03-26T02:53:31;99935.38;;;6.82;82.10
49072;BME280;52656;52.610;10.236;2023-03-26T02:55:56;99940.69;;;6.81;82.70
49072;BME280;52656;52.610;10.236;2023-03-26T02:58:22;99935.06;;;6.90;82.23
49072;BME280;52656;52.610;10.236;2023-03-26T03:00:50;99933.59;;;6.83;82.43
49072;BME280;52656;52.610;10.236;2023-03-26T03:03:22;99936.84;;;6.66;82.88
49072;BME280;52656;52.610;10.236;2023-03-26T03:05:49;99942.09;;;6.66;83.02
49072;BME280;52656;52.610;10.236;2023-03-26T03:08:19;99947.88;;;6.52;83.46
49072;BME280;52656;52.610;10.236;2023-03-26T03:10:59;99943.69;;;6.47;83.85
49072;BME280;52656;52.610;10.236;2023-03-26T03:13:24;99943.84;;;6.42;83.28
49072;BME280;52656;52.610;10.236;2023-03-26T03:15:50;99943.47;;;6.26;84.13
49072;BME280;52656;52.610;10.236;2023-03-26T03:18:15;99945.41;;;6.21;83.87
49072;BME280;52656;52.610;10.236;2023-03-26T03:20:40;99939.63;;;6.11;83.51
49072;BME280;52656;52.610;10.236;2023-03-26T03:23:06;99941.00;;;5.97;84.56
49072;BME280;52656;52.610;10.236;2023-03-26T03:25:31;99933.53;;;5.84;84.35
49072;BME280;52656;52.610;10.236;2023-03-26T03:27:57;99940.06;;;5.73;85.11
49072;BME280;52656;52.610;10.236;2023-03-26T03:30:23;99939.69;;;5.57;86.54
49072;BME280;52656;52.610;10.236;2023-03-26T03:32:49;99944.16;;;5.53;85.84
49072;BME280;52656;52.610;10.236;2023-03-26T03:35:15;99942.59;;;5.48;86.15
49072;BME280;52656;52.610;10.236;2023-03-26T03:37:40;99943.75;;;5.39;86.77
49072;BME280;52656;52.610;10.236;2023-03-26T03:40:06;99940.63;;;5.26;88.36
49072;BME280;52656;52.610;10.236;2023-03-26T03:42:34;99944.00;;;5.31;87.11
49072;BME280;52656;52.610;10.236;2023-03-26T03:45:00;99943.25;;;5.28;86.92
49072;BME280;52656;52.610;10.236;2023-03-26T03:47:26;99943.03;;;5.34;88.59
49072;BME280;52656;52.610;10.236;2023-03-26T03:49:51;99951.41;;;5.47;87.31
49072;BME280;52656;52.610;10.236;2023-03-26T03:52:17;99945.84;;;5.56;87.41
49072;BME280;52656;52.610;10.236;2023-03-26T03:54:43;99942.84;;;5.68;86.79
49072;BME280;52656;52.610;10.236;2023-03-26T03:57:08;99945.91;;;5.81;86.21
49072;BME280;52656;52.610;10.236;2023-03-26T03:59:33;99935.19;;;5.87;85.62
49072;BME280;52656;52.610;10.236;2023-03-26T04:01:59;99938.16;;;6.03;84.67
49072;BME280;52656;52.610;10.236;2023-03-26T04:04:25;99940.47;;;6.12;83.57
49072;BME280;52656;52.610;10.236;2023-03-26T04:06:50;99934.50;;;6.08;83.93
49072;BME280;52656;52.610;10.236;2023-03-26T04:09:16;99933.13;;;6.22;83.33
49072;BME280;52656;52.610;10.236;2023-03-26T04:11:41;99924.28;;;6.24;83.34
49072;BME280;52656;52.610;10.236;2023-03-26T04:14:06;99928.44;;;6.31;83.36
49072;BME280;52656;52.610;10.236;2023-03-26T04:16:32;99931.91;;;6.32;83.11
49072;BME280;52656;52.610;10.236;2023-03-26T04:18:57;99923.97;;;6.33;82.44
49072;BME280;52656;52.610;10.236;2023-03-26T04:21:26;99932.41;;;6.43;81.88
49072;BME280;52656;52.610;10.236;2023-03-26T04:23:54;99933.41;;;6.41;82.40
49072;BME280;52656;52.610;10.236;2023-03-26T04:26:19;99929.63;;;6.48;81.95
49072;BME280;52656;52.610;10.236;2023-03-26T04:28:48;99929.78;;;6.43;82.18
49072;BME280;52656;52.610;10.236;2023-03-26T04:31:17;99929.16;;;6.35;82.49
49072;BME280;52656;52.610;10.236;2023-03-26T04:33:48;99925.00;;;6.54;81.74
49072;BME280;52656;52.610;10.236;2023-03-26T04:36:15;99924.66;;;6.63;81.59
49072;BME280;52656;52.610;10.236;2023-03-26T04:38:45;99923.66;;;6.68;81.13
49072;BME280;52656;52.610;10.236;2023-03-26T04:41:14;99923.50;;;6.71;81.51
49072;BME280;52656;52.610;10.236;2023-03-26T04:43:39;99921.28;;;6.60;81.31
49072;BME280;52656;52.610;10.236;2023-03-26T04:46:12;99921.56;;;6.76;80.90
49072;BME280;52656;52.610;10.236;2023-03-26T04:48:37;99918.81;;;6.79;80.82
49072;BME280;52656;52.610;10.236;2023-03-26T04:51:03;99922.22;;;6.82;80.83
49072;BME280;52656;52.610;10.236;2023-03-26T04:53:34;99926.38;;;6.88;80.18
49072;BME280;52656;52.610;10.236;2023-03-26T04:58:47;99933.19;;;6.70;81.02
49072;BME280;52656;52.610;10.236;2023-03-26T05:01:14;99927.84;;;6.72;80.71
49072;BME280;52656;52.610;10.236;2023-03-26T05:03:40;99931.53;;;6.68;81.34
49072;BME280;52656;52.610;10.236;2023-03-26T05:06:06;99922.03;;;6.63;81.67
49072;BME280;52656;52.610;10.236;2023-03-26T05:08:34;99924.94;;;6.56;81.79
49072;BME280;52656;52.610;10.236;2023-03-26T05:10:59;99922.06;;;6.62;81.10
49072;BME280;52656;52.610;10.236;2023-03-26T05:13:25;99920.47;;;6.58;81.42
49072;BME280;52656;52.610;10.236;2023-03-26T05:15:50;99917.41;;;6.70;81.53
49072;BME280;52656;52.610;10.236;2023-03-26T05:18:16;99923.69;;;6.66;81.45
49072;BME280;52656;52.610;10.236;2023-03-26T05:20:42;99912.88;;;6.74;81.01
49072;BME280;52656;52.610;10.236;2023-03-26T05:23:08;99919.41;;;6.63;80.09
49072;BME280;52656;52.610;10.236;2023-03-26T05:25:33;99924.19;;;6.76;79.67
49072;BME280;52656;52.610;10.236;2023-03-26T05:28:00;99932.06;;;6.77;80.03
49072;BME280;52656;52.610;10.236;2023-03-26T05:30:26;99923.34;;;6.75;79.70
49072;BME280;52656;52.610;10.236;2023-03-26T05:32:51;99927.69;;;6.76;79.57
49072;BME280;52656;52.610;10.236;2023-03-26T05:35:17;99922.41;;;6.76;79.04
49072;BME280;52656;52.610;10.236;2023-03-26T05:37:43;99924.66;;;6.63;79.30
49072;BME280;52656;52.610;10.236;2023-03-26T05:40:10;99922.59;;;6.72;79.27
49072;BME280;52656;52.610;10.236;2023-03-26T05:42:38;99917.44;;;6.92;78.48
49072;BME280;52656;52.610;10.236;2023-03-26T05:45:05;99923.28;;;7.00;78.04
49072;BME280;52656;52.610;10.236;2023-03-26T05:47:31;99927.53;;;7.04;78.32
49072;BME280;52656;52.610;10.236;2023-03-26T05:49:57;99925.84;;;7.02;77.45
49072;BME280;52656;52.610;10.236;2023-03-26T05:52:22;99930.94;;;7.06;77.13
49072;BME280;52656;52.610;10.236;2023-03-26T05:54:47;99924.97;;;7.25;76.80
49072;BME280;52656;52.610;10.236;2023-03-26T05:57:13;99919.16;;;7.38;76.03
49072;BME280;52656;52.610;10.236;2023-03-26T05:59:38;99920.50;;;7.49;76.10
49072;BME280;52656;52.610;10.236;2023-03-26T06:02:03;99917.84;;;7.49;76.01
49072;BME280;52656;52.610;10.236;2023-03-26T06:04:29;99912.84;;;7.43;75.96
49072;BME280;52656;52.610;10.236;2023-03-26T06:06:56;99915.19;;;7.50;75.52
49072;BME280;52656;52.610;10.236;2023-03-26T06:09:21;99903.59;;;7.54;75.72
49072;BME280;52656;52.610;10.236;2023-03-26T06:11:47;99913.03;;;7.60;75.74
49072;BME280;52656;52.610;10.236;2023-03-26T06:14:12;99903.59;;;7.54;75.34
49072;BME280;52656;52.610;10.236;2023-03-26T06:16:37;99897.22;;;7.60;75.98
49072;BME280;52656;52.610;10.236;2023-03-26T06:19:03;99902.88;;;7.71;75.07
49072;BME280;52656;52.610;10.236;2023-03-26T06:21:28;99900.72;;;7.81;74.30
49072;BME280;52656;52.610;10.236;2023-03-26T06:23:54;99891.25;;;7.97;73.96
49072;BME280;52656;52.610;10.236;2023-03-26T06:26:19;99898.81;;;8.27;73.06
49072;BME280;52656;52.610;10.236;2023-03-26T06:28:45;99894.56;;;8.43;72.40
49072;BME280;52656;52.610;10.236;2023-03-26T06:31:11;99897.50;;;8.56;71.87
49072;BME280;52656;52.610;10.236;2023-03-26T06:33:36;99904.28;;;8.61;71.78
49072;BME280;52656;52.610;10.236;2023-03-26T06:36:01;99897.19;;;8.82;71.10
49072;BME280;52656;52.610;10.236;2023-03-26T06:38:27;99894.13;;;8.73;70.72
49072;BME280;52656;52.610;10.236;2023-03-26T06:40:52;99896.69;;;8.74;70.84
49072;BME280;52656;52.610;10.236;2023-03-26T06:43:18;99897.59;;;8.73;71.16
49072;BME280;52656;52.610;10.236;2023-03-26T06:45:43;99893.81;;;8.79;71.45
49072;BME280;52656;52.610;10.236;2023-03-26T06:48:09;99898.03;;;8.64;72.09
49072;BME280;52656;52.610;10.236;2023-03-26T06:50:34;99895.38;;;8.64;71.92
49072;BME280;52656;52.610;10.236;2023-03-26T06:52:59;99898.56;;;8.52;71.59
49072;BME280;52656;52.610;10.236;2023-03-26T06:55:25;99897.44;;;8.57;72.39
49072;BME280;52656;52.610;10.236;2023-03-26T06:57:52;99901.94;;;8.55;72.79
49072;BME280;52656;52.610;10.236;2023-03-26T07:00:18;99897.50;;;8.56;71.83
49072;BME280;52656;52.610;10.236;2023-03-26T07:02:45;99903.34;;;8.62;72.15
49072;BME280;52656;52.610;10.236;2023-03-26T07:05:11;99901.66;;;8.61;71.97
49072;BME280;52656;52.610;10.236;2023-03-26T07:07:36;99896.25;;;8.64;72.02
49072;BME280;52656;52.610;10.236;2023-03-26T07:10:03;99901.00;;;8.56;71.92
49072;BME280;52656;52.610;10.236;2023-03-26T07:12:28;99903.16;;;8.67;71.74
49072;BME280;52656;52.610;10.236;2023-03-26T07:14:54;99898.75;;;8.68;71.79
49072;BME280;52656;52.610;10.236;2023-03-26T07:17:19;99891.03;;;8.63;71.93
49072;BME280;52656;52.610;10.236;2023-03-26T07:19:44;99895.22;;;8.67;71.80
49072;BME280;52656;52.610;10.236;2023-03-26T07:22:14;99890.97;;;8.64;71.66
49072;BME280;52656;52.610;10.236;2023-03-26T07:24:43;99881.91;;;8.70;71.48
49072;BME280;52656;52.610;10.236;2023-03-26T07:27:38;99884.75;;;8.65;70.40
49072;BME280;52656;52.610;10.236;2023-03-26T07:30:11;99887.97;;;8.72;71.62
49072;BME280;52656;52.610;10.236;2023-03-26T07:45:41;99883.91;;;8.84;71.16
49072;BME280;52656;52.610;10.236;2023-03-26T07:48:19;99885.25;;;8.74;71.24
49072;BME280;52656;52.610;10.236;2023-03-26T07:50:46;99884.31;;;8.93;70.42
49072;BME280;52656;52.610;10.236;2023-03-26T07:53:13;99877.72;;;9.04;70.40
49072;BME280;52656;52.610;10.236;2023-03-26T07:55:59;99880.75;;;9.13;69.89
49072;BME280;52656;52.610;10.236;2023-03-26T07:58:43;99890.53;;;9.11;70.28
49072;BME280;52656;52.610;10.236;2023-03-26T08:12:56;99882.69;;;8.91;70.84
49072;BME280;52656;52.610;10.236;2023-03-26T08:15:27;99888.53;;;8.98;70.56
49072;BME280;52656;52.610;10.236;2023-03-26T08:18:22;99891.41;;;8.93;69.99
49072;BME280;52656;52.610;10.236;2023-03-26T08:21:30;99884.53;;;9.08;69.38
49072;BME280;52656;52.610;10.236;2023-03-26T08:24:05;99880.53;;;9.72;67.09
49072;BME280;52656;52.610;10.236;2023-03-26T08:26:45;99882.16;;;9.93;66.21
49072;BME280;52656;52.610;10.236;2023-03-26T08:31:54;99873.53;;;11.20;61.15
49072;BME280;52656;52.610;10.236;2023-03-26T08:34:21;99865.22;;;11.88;57.24
49072;BME280;52656;52.610;10.236;2023-03-26T08:36:47;99861.75;;;12.02;56.82
49072;BME280;52656;52.610;10.236;2023-03-26T08:39:12;99863.03;;;12.39;55.45
49072;BME280;52656;52.610;10.236;2023-03-26T08:42:18;99867.47;;;12.10;52.41
49072;BME280;52656;52.610;10.236;2023-03-26T08:47:49;99873.38;;;12.44;54.37
49072;BME280;52656;52.610;10.236;2023-03-26T08:58:56;99864.31;;;12.48;51.28
49072;BME280;52656;52.610;10.236;2023-03-26T09:04:09;99869.91;;;13.28;50.93
49072;BME280;52656;52.610;10.236;2023-03-26T09:10:14;99861.03;;;13.41;50.82
49072;BME280;52656;52.610;10.236;2023-03-26T09:18:42;99852.47;;;13.90;48.03
49072;BME280;52656;52.610;10.236;2023-03-26T09:21:52;99868.56;;;14.53;47.09
49072;BME280;52656;52.610;10.236;2023-03-26T09:27:36;99858.97;;;14.76;45.50
49072;BME280;52656;52.610;10.236;2023-03-26T09:33:24;99850.94;;;15.25;46.41
49072;BME280;52656;52.610;10.236;2023-03-26T09:38:50;99844.47;;;15.64;45.43
49072;BME280;52656;52.610;10.236;2023-03-26T09:44:02;99854.59;;;16.07;42.24
49072;BME280;52656;52.610;10.236;2023-03-26T09:46:55;99851.91;;;16.07;44.81
49072;BME280;52656;52.610;10.236;2023-03-26T09:52:20;99851.50;;;16.47;43.40
49072;BME280;52656;52.610;10.236;2023-03-26T10:01:19;99844.25;;;16.83;40.87
49072;BME280;52656;52.610;10.236;2023-03-26T10:09:43;99843.28;;;15.92;43.93
49072;BME280;52656;52.610;10.236;2023-03-26T10:12:20;99846.84;;;16.04;43.45
49072;BME280;52656;52.610;10.236;2023-03-26T10:15:17;99835.94;;;16.18;43.09
49072;BME280;52656;52.610;10.236;2023-03-26T10:17:58;99843.59;;;15.77;43.30
49072;BME280;52656;52.610;10.236;2023-03-26T10:20:40;99841.72;;;15.42;44.37
49072;BME280;52656;52.610;10.236;2023-03-26T10:31:34;99842.38;;;12.73;48.81
49072;BME280;52656;52.610;10.236;2023-03-26T10:34:27;99848.63;;;12.43;49.65
49072;BME280;52656;52.610;10.236;2023-03-26T10:42:22;99839.56;;;13.17;48.73
49072;BME280;52656;52.610;10.236;2023-03-26T10:48:09;99826.03;;;13.87;45.74
49072;BME280;52656;52.610;10.236;2023-03-26T10:59:00;99817.84;;;14.54;46.74
49072;BME280;52656;52.610;10.236;2023-03-26T11:01:51;99817.28;;;14.74;45.02
49072;BME280;52656;52.610;10.236;2023-03-26T11:07:19;99806.88;;;15.43;43.47
49072;BME280;52656;52.610;10.236;2023-03-26T11:09:53;99795.34;;;15.67;43.38
49072;BME280;52656;52.610;10.236;2023-03-26T11:15:22;99802.34;;;15.92;42.02
49072;BME280;52656;52.610;10.236;2023-03-26T11:20:31;99810.34;;;15.57;43.73
49072;BME280;52656;52.610;10.236;2023-03-26T11:33:55;99827.53;;;13.25;45.44
49072;BME280;52656;52.610;10.236;2023-03-26T11:36:25;99829.00;;;12.32;46.95
49072;BME280;52656;52.610;10.236;2023-03-26T11:38:56;99823.25;;;12.54;46.87
49072;BME280;52656;52.610;10.236;2023-03-26T11:41:26;99815.28;;;12.54;46.97
49072;BME280;52656;52.610;10.236;2023-03-26T11:43:58;99821.03;;;12.46;47.03
49072;BME280;52656;52.610;10.236;2023-03-26T11:46:26;99814.47;;;12.80;46.90
49072;BME280;52656;52.610;10.236;2023-03-26T11:48:54;99812.53;;;13.23;46.63
49072;BME280;52656;52.610;10.236;2023-03-26T11:51:28;99806.00;;;13.42;46.53
49072;BME280;52656;52.610;10.236;2023-03-26T11:53:54;99807.53;;;13.19;45.92
49072;BME280;52656;52.610;10.236;2023-03-26T11:56:30;99810.28;;;13.57;46.05
49072;BME280;52656;52.610;10.236;2023-03-26T11:59:00;99807.31;;;13.62;45.46
49072;BME280;52656;52.610;10.236;2023-03-26T12:04:16;99803.75;;;13.76;44.83
49072;BME280;52656;52.610;10.236;2023-03-26T12:07:06;99793.56;;;13.82;44.11
49072;BME280;52656;52.610;10.236;2023-03-26T12:09:33;99798.28;;;14.04;45.52
49072;BME280;52656;52.610;10.236;2023-03-26T12:12:00;99797.59;;;14.39;45.02
49072;BME280;52656;52.610;10.236;2023-03-26T12:14:29;99801.66;;;14.06;44.29
49072;BME280;52656;52.610;10.236;2023-03-26T12:17:05;99799.47;;;12.79;46.16
49072;BME280;52656;52.610;10.236;2023-03-26T12:19:39;99799.69;;;13.03;45.88
49072;BME280;52656;52.610;10.236;2023-03-26T12:22:11;99802.41;;;13.16;45.94
49072;BME280;52656;52.610;10.236;2023-03-26T12:25:21;99804.03;;;13.18;45.93
49072;BME280;52656;52.610;10.236;2023-03-26T12:30:28;99807.91;;;12.86;46.63
49072;BME280;52656;52.610;10.236;2023-03-26T12:33:26;99808.72;;;12.59;46.69
49072;BME280;52656;52.610;10.236;2023-03-26T12:35:55;99812.28;;;12.44;46.83
49072;BME280;52656;52.610;10.236;2023-03-26T12:38:29;99806.91;;;12.60;46.99
49072;BME280;52656;52.610;10.236;2023-03-26T12:41:07;99814.38;;;12.10;47.96
49072;BME280;52656;52.610;10.236;2023-03-26T12:43:47;99807.25;;;12.11;48.13
49072;BME280;52656;52.610;10.236;2023-03-26T12:46:21;99811.66;;;12.26;48.06
49072;BME280;52656;52.610;10.236;2023-03-26T12:48:50;99808.63;;;12.61;48.53
49072;BME280;52656;52.610;10.236;2023-03-26T12:51:25;99811.97;;;12.50;47.54
49072;BME280;52656;52.610;10.236;2023-03-26T12:59:39;99803.47;;;13.13;46.79
49072;BME280;52656;52.610;10.236;2023-03-26T13:04:54;99801.13;;;13.09;46.49
49072;BME280;52656;52.610;10.236;2023-03-26T13:10:27;99797.72;;;13.46;47.81
49072;BME280;52656;52.610;10.236;2023-03-26T13:15:41;99797.09;;;13.56;45.57
49072;BME280;52656;52.610;10.236;2023-03-26T13:19:03;99797.75;;;13.59;45.71
49072;BME280;52656;52.610;10.236;2023-03-26T13:24:48;99785.03;;;13.37;45.84
49072;BME280;52656;52.610;10.236;2023-03-26T13:27:35;99780.16;;;13.04;46.25
49072;BME280;52656;52.610;10.236;2023-03-26T13:36:07;99782.50;;;12.39;48.37
49072;BME280;52656;52.610;10.236;2023-03-26T13:38:44;99781.47;;;12.41;48.47
49072;BME280;52656;52.610;10.236;2023-03-26T13:41:28;99779.69;;;12.28;48.09
49072;BME280;52656;52.610;10.236;2023-03-26T13:44:35;99780.59;;;11.98;48.89
49072;BME280;52656;52.610;10.236;2023-03-26T13:50:16;99774.16;;;11.88;49.38
49072;BME280;52656;52.610;10.236;2023-03-26T13:55:40;99777.47;;;11.91;49.18
49072;BME280;52656;52.610;10.236;2023-03-26T14:03:16;99773.72;;;12.10;49.77
49072;BME280;52656;52.610;10.236;2023-03-26T14:05:47;99768.50;;;12.23;49.44
49072;BME280;52656;52.610;10.236;2023-03-26T14:08:21;99772.00;;;12.09;48.80
49072;BME280;52656;52.610;10.236;2023-03-26T14:11:13;99774.66;;;12.09;48.86
49072;BME280;52656;52.610;10.236;2023-03-26T14:13:46;99776.75;;;12.18;48.65
49072;BME280;52656;52.610;10.236;2023-03-26T14:16:28;99777.50;;;12.20;48.48
49072;BME280;52656;52.610;10.236;2023-03-26T14:22:07;99782.69;;;12.21;49.35
49072;BME280;52656;52.610;10.236;2023-03-26T14:25:00;99786.97;;;12.24;47.75
49072;BME280;52656;52.610;10.236;2023-03-26T14:30:35;99780.53;;;12.42;47.83
49072;BME280;52656;52.610;10.236;2023-03-26T14:33:25;99785.53;;;12.47;48.30
49072;BME280;52656;52.610;10.236;2023-03-26T14:39:00;99781.06;;;12.47;47.85
49072;BME280;52656;52.610;10.236;2023-03-26T14:49:39;99780.44;;;12.01;47.92
49072;BME280;52656;52.610;10.236;2023-03-26T14:55:11;99777.47;;;11.77;49.53
49072;BME280;52656;52.610;10.236;2023-03-26T15:11:52;99781.44;;;11.70;48.08
49072;BME280;52656;52.610;10.236;2023-03-26T15:14:35;99776.94;;;11.56;47.78
49072;BME280;52656;52.610;10.236;2023-03-26T15:22:32;99780.31;;;11.44;48.67
49072;BME280;52656;52.610;10.236;2023-03-26T15:30:48;99784.19;;;11.83;47.94
49072;BME280;52656;52.610;10.236;2023-03-26T15:34:01;99778.78;;;11.70;47.35
49072;BME280;52656;52.610;10.236;2023-03-26T15:39:26;99785.03;;;11.39;48.30
49072;BME280;52656;52.610;10.236;2023-03-26T15:42:21;99792.22;;;11.37;48.50
49072;BME280;52656;52.610;10.236;2023-03-26T15:45:03;99790.88;;;11.30;48.30
49072;BME280;52656;52.610;10.236;2023-03-26T15:52:58;99791.56;;;11.02;48.49
49072;BME280;52656;52.610;10.236;2023-03-26T15:55:30;99797.06;;;10.83;48.21
49072;BME280;52656;52.610;10.236;2023-03-26T15:58:31;99801.06;;;10.74;48.45
49072;BME280;52656;52.610;10.236;2023-03-26T16:01:15;99800.47;;;10.69;49.37
49072;BME280;52656;52.610;10.236;2023-03-26T16:04:03;99798.84;;;10.66;48.01
49072;BME280;52656;52.610;10.236;2023-03-26T16:15:23;99801.38;;;10.36;49.84
49072;BME280;52656;52.610;10.236;2023-03-26T16:23:01;99802.59;;;10.13;50.18
49072;BME280;52656;52.610;10.236;2023-03-26T16:33:43;99809.41;;;9.84;50.84
49072;BME280;52656;52.610;10.236;2023-03-26T16:36:25;99812.44;;;9.77;50.49
49072;BME280;52656;52.610;10.236;2023-03-26T16:47:00;99820.44;;;9.40;52.86
49072;BME280;52656;52.610;10.236;2023-03-26T16:49:35;99811.22;;;9.30;53.07
49072;BME280;52656;52.610;10.236;2023-03-26T16:52:22;99819.25;;;9.29;52.67
49072;BME280;52656;52.610;10.236;2023-03-26T16:54:56;99819.25;;;9.29;52.40
49072;BME280;52656;52.610;10.236;2023-03-26T16:57:40;99823.91;;;9.24;52.99
49072;BME280;52656;52.610;10.236;2023-03-26T17:05:19;99833.34;;;9.10;53.17
49072;BME280;52656;52.610;10.236;2023-03-26T17:07:59;99839.78;;;9.05;53.08
49072;BME280;52656;52.610;10.236;2023-03-26T17:10:38;99841.72;;;9.01;52.94
49072;BME280;52656;52.610;10.236;2023-03-26T17:13:10;99847.84;;;9.02;52.39
49072;BME280;52656;52.610;10.236;2023-03-26T17:15:52;99843.38;;;9.04;52.47
49072;BME280;52656;52.610;10.236;2023-03-26T17:21:51;99854.28;;;8.96;51.65
49072;BME280;52656;52.610;10.236;2023-03-26T17:27:17;99858.34;;;8.84;51.16
49072;BME280;52656;52.610;10.236;2023-03-26T17:32:22;99865.19;;;8.70;50.99
49072;BME280;52656;52.610;10.236;2023-03-26T17:34:58;99868.13;;;8.63;51.01
49072;BME280;52656;52.610;10.236;2023-03-26T17:37:40;99868.75;;;8.50;52.09
49072;BME280;52656;52.610;10.236;2023-03-26T17:41:09;99878.16;;;8.36;51.61
49072;BME280;52656;52.610;10.236;2023-03-26T17:46:03;99884.75;;;8.26;50.65
49072;BME280;52656;52.610;10.236;2023-03-26T17:48:31;99885.91;;;8.19;51.59
49072;BME280;52656;52.610;10.236;2023-03-26T17:53:37;99900.56;;;8.06;52.27
49072;BME280;52656;52.610;10.236;2023-03-26T17:56:12;99906.88;;;8.02;51.76
49072;BME280;52656;52.610;10.236;2023-03-26T17:58:46;99904.44;;;7.97;52.21
49072;BME280;52656;52.610;10.236;2023-03-26T18:01:25;99907.19;;;7.94;52.51
49072;BME280;52656;52.610;10.236;2023-03-26T18:03:57;99915.56;;;7.83;53.03
49072;BME280;52656;52.610;10.236;2023-03-26T18:06:53;99920.38;;;7.74;53.80
49072;BME280;52656;52.610;10.236;2023-03-26T18:12:20;99921.84;;;7.59;53.34
49072;BME280;52656;52.610;10.236;2023-03-26T18:17:42;99935.81;;;7.39;54.38